Manchester, CA (95459)

11:51 PM PST on January 16, 2017 (GMT -0800)
| | Change Station
Active Advisory: Small Craft Advisory

Elev -9999 ft 0.00 °N, 0.00 °E | Updated 0 second ago

Partly Cloudy
Partly Cloudy
°F
Feels Like °F
N
Wind Variable Wind from North
Gusts mph

Today
High -- | Low -- °F
--% Chance of Precip.
Yesterday
High -- | Low -- °F
Precip. -- in
Pressure 30.12 in
Visibility 10.0 miles
Clouds Clear
Dew Point Not available.
Humidity Not available.
Rainfall --
Snow Depth Not available.
7:31 AM 5:18 PM
Waning Gibbous, 74% visible
METAR KUKI 170656Z AUTO 33003KT 10SM CLR 04/04 A3012 RMK AO2 SLP197 T00440039
Pressure 30.12 in
Visibility 10.0 miles
Clouds Clear
Dew Point Not available.
Humidity Not available.
Rainfall --
Snow Depth Not available.
7:31 AM 5:18 PM
Waning Gibbous, 74% visible
METAR KUKI 170656Z AUTO 33003KT 10SM CLR 04/04 A3012 RMK AO2 SLP197 T00440039

Get Your Daily Forecast Email!

Thanks for signing up!

Be on the lookout for a verification email in your inbox.

You'll start receiving the daily forecast at 8 AM.

×

10-Day Weather Forecast

Almanac

Astronomy

Jan. 16, 2017 Rise Set
Actual Time
Civil Twilight
Nautical Twilight
Astronomical Twilight
Moon
Length of Visible Light
Length of Day
Tomorrow will be .
, % of the Moon is Illuminated

Today's Extremes

State Highs State Lows

Community

WunderPhotos

Upload Photos

1,962,540 photos uploaded!

WunderBlog® & News

Nearby

Air Quality

  Air Quality AQ Index Pollutant
Not available.

Snow Depth

Station Depth Elevation

Earthquake Activity

City Distance Mag. Time & Date
Minimum magnitude displayed is 2.5.

Coastal Water Temperatures

Place Temperature

Stations

Nearby Weather Stations

Station Location Temp. Windchill Dew Point Humidity Wind Precip. Elev Updated Type
                   

Watches & Warnings

Small Craft Advisory
Issued: 8:28 PM PST Jan. 16, 2017 – National Weather Service

... Small Craft Advisory remains in effect from 9 PM Tuesday to
9 am PST Thursday...

* winds... south wind increasing to 15 kt with gusts to 25 kt by
Tuesday evening. Winds will continue to increase to 20 to 30
kt Tuesday night. Strongest winds near Cape Mendocino. Winds
will diminish Wednesday night.

* Waves/seas... seas building to 11 to 14 feet around 14 seconds
Tuesday evening... then continuing through Wednesday night.
Seas will build to 25 feet or higher around 18 seconds on
Friday.

Precautionary/preparedness actions...

A Small Craft Advisory means that wind speeds of 21 to 33 knots
are expected to produce hazardous wave conditions to small craft.
Inexperienced mariners... especially those operating smaller
vessels should avoid navigating in these conditions.